sensor_id;sensor_type;location;lat;lon;timestamp;P1;durP1;ratioP1;P2;durP2;ratioP2
44120;SDS011;29783;52.504;13.478;2023-08-01T00:00:57;9.75;;;3.92;;
44120;SDS011;29783;52.504;13.478;2023-08-01T00:03:24;9.55;;;3.75;;
44120;SDS011;29783;52.504;13.478;2023-08-01T00:05:50;8.02;;;3.53;;
44120;SDS011;29783;52.504;13.478;2023-08-01T00:08:16;9.40;;;3.85;;
44120;SDS011;29783;52.504;13.478;2023-08-01T00:10:41;12.80;;;3.60;;
44120;SDS011;29783;52.504;13.478;2023-08-01T00:13:07;9.15;;;3.72;;
44120;SDS011;29783;52.504;13.478;2023-08-01T00:15:34;7.78;;;3.70;;
44120;SDS011;29783;52.504;13.478;2023-08-01T00:18:00;10.80;;;3.58;;
44120;SDS011;29783;52.504;13.478;2023-08-01T00:20:26;12.82;;;3.45;;
44120;SDS011;29783;52.504;13.478;2023-08-01T00:22:51;9.57;;;3.85;;
44120;SDS011;29783;52.504;13.478;2023-08-01T00:25:17;10.55;;;3.88;;
44120;SDS011;29783;52.504;13.478;2023-08-01T00:27:44;9.20;;;3.67;;
44120;SDS011;29783;52.504;13.478;2023-08-01T00:30:10;8.82;;;4.25;;
44120;SDS011;29783;52.504;13.478;2023-08-01T00:32:36;11.02;;;3.50;;
44120;SDS011;29783;52.504;13.478;2023-08-01T00:45:08;6.82;;;3.17;;
44120;SDS011;29783;52.504;13.478;2023-08-01T00:47:36;9.23;;;2.95;;
44120;SDS011;29783;52.504;13.478;2023-08-01T00:50:01;9.05;;;2.35;;
44120;SDS011;29783;52.504;13.478;2023-08-01T00:52:28;4.57;;;2.95;;
44120;SDS011;29783;52.504;13.478;2023-08-01T00:54:54;8.38;;;2.80;;
44120;SDS011;29783;52.504;13.478;2023-08-01T00:57:20;4.50;;;2.38;;
44120;SDS011;29783;52.504;13.478;2023-08-01T00:59:46;6.95;;;2.80;;
44120;SDS011;29783;52.504;13.478;2023-08-01T01:02:12;5.68;;;2.47;;
44120;SDS011;29783;52.504;13.478;2023-08-01T01:04:39;4.18;;;2.88;;
44120;SDS011;29783;52.504;13.478;2023-08-01T01:07:05;6.82;;;2.78;;
44120;SDS011;29783;52.504;13.478;2023-08-01T01:09:32;6.25;;;3.13;;
44120;SDS011;29783;52.504;13.478;2023-08-01T01:11:58;4.95;;;2.50;;
44120;SDS011;29783;52.504;13.478;2023-08-01T01:14:24;5.07;;;2.60;;
44120;SDS011;29783;52.504;13.478;2023-08-01T01:16:53;5.43;;;2.92;;
44120;SDS011;29783;52.504;13.478;2023-08-01T01:19:21;5.80;;;3.13;;
44120;SDS011;29783;52.504;13.478;2023-08-01T01:21:46;10.85;;;3.30;;
44120;SDS011;29783;52.504;13.478;2023-08-01T01:24:16;4.82;;;2.83;;
44120;SDS011;29783;52.504;13.478;2023-08-01T01:26:44;6.13;;;2.50;;
44120;SDS011;29783;52.504;13.478;2023-08-01T01:29:11;8.57;;;3.17;;
44120;SDS011;29783;52.504;13.478;2023-08-01T01:31:38;5.43;;;3.10;;
44120;SDS011;29783;52.504;13.478;2023-08-01T01:34:03;6.43;;;3.08;;
44120;SDS011;29783;52.504;13.478;2023-08-01T01:36:30;7.78;;;3.35;;
44120;SDS011;29783;52.504;13.478;2023-08-01T01:38:55;6.70;;;3.05;;
44120;SDS011;29783;52.504;13.478;2023-08-01T01:41:22;8.27;;;3.70;;
44120;SDS011;29783;52.504;13.478;2023-08-01T01:43:48;7.82;;;3.40;;
44120;SDS011;29783;52.504;13.478;2023-08-01T01:46:14;7.65;;;3.28;;
44120;SDS011;29783;52.504;13.478;2023-08-01T01:48:41;6.32;;;3.85;;
44120;SDS011;29783;52.504;13.478;2023-08-01T01:51:07;6.20;;;3.60;;
44120;SDS011;29783;52.504;13.478;2023-08-01T01:53:33;6.13;;;3.22;;
44120;SDS011;29783;52.504;13.478;2023-08-01T01:55:59;6.38;;;3.38;;
44120;SDS011;29783;52.504;13.478;2023-08-01T01:58:25;8.50;;;3.60;;
44120;SDS011;29783;52.504;13.478;2023-08-01T02:00:50;7.70;;;3.38;;
44120;SDS011;29783;52.504;13.478;2023-08-01T02:03:16;7.28;;;3.75;;
44120;SDS011;29783;52.504;13.478;2023-08-01T02:05:42;8.90;;;3.55;;
44120;SDS011;29783;52.504;13.478;2023-08-01T02:08:07;10.13;;;3.80;;
44120;SDS011;29783;52.504;13.478;2023-08-01T02:10:33;8.60;;;4.00;;
44120;SDS011;29783;52.504;13.478;2023-08-01T02:12:59;8.85;;;3.72;;
44120;SDS011;29783;52.504;13.478;2023-08-01T02:15:24;8.32;;;4.10;;
44120;SDS011;29783;52.504;13.478;2023-08-01T02:17:50;10.90;;;3.78;;
44120;SDS011;29783;52.504;13.478;2023-08-01T02:20:16;6.65;;;3.80;;
44120;SDS011;29783;52.504;13.478;2023-08-01T02:22:41;6.43;;;3.70;;
44120;SDS011;29783;52.504;13.478;2023-08-01T02:25:07;7.05;;;4.05;;
44120;SDS011;29783;52.504;13.478;2023-08-01T02:27:33;8.02;;;3.90;;
44120;SDS011;29783;52.504;13.478;2023-08-01T02:30:00;9.13;;;3.92;;
44120;SDS011;29783;52.504;13.478;2023-08-01T02:32:25;5.65;;;3.60;;
44120;SDS011;29783;52.504;13.478;2023-08-01T02:34:54;5.80;;;3.70;;
44120;SDS011;29783;52.504;13.478;2023-08-01T02:37:20;8.00;;;4.20;;
44120;SDS011;29783;52.504;13.478;2023-08-01T02:39:47;7.38;;;3.83;;
44120;SDS011;29783;52.504;13.478;2023-08-01T02:42:13;6.53;;;3.63;;
44120;SDS011;29783;52.504;13.478;2023-08-01T02:44:38;12.77;;;4.07;;
44120;SDS011;29783;52.504;13.478;2023-08-01T02:47:04;12.68;;;4.30;;
44120;SDS011;29783;52.504;13.478;2023-08-01T02:49:31;8.98;;;4.00;;
44120;SDS011;29783;52.504;13.478;2023-08-01T02:52:08;14.85;;;4.15;;
44120;SDS011;29783;52.504;13.478;2023-08-01T02:54:35;9.18;;;4.03;;
44120;SDS011;29783;52.504;13.478;2023-08-01T02:57:01;6.97;;;3.72;;
44120;SDS011;29783;52.504;13.478;2023-08-01T02:59:26;13.10;;;4.43;;
44120;SDS011;29783;52.504;13.478;2023-08-01T03:01:52;10.10;;;3.83;;
44120;SDS011;29783;52.504;13.478;2023-08-01T03:04:18;15.20;;;4.28;;
44120;SDS011;29783;52.504;13.478;2023-08-01T03:06:44;11.35;;;4.22;;
44120;SDS011;29783;52.504;13.478;2023-08-01T03:09:11;10.27;;;3.92;;
44120;SDS011;29783;52.504;13.478;2023-08-01T03:11:37;9.40;;;4.20;;
44120;SDS011;29783;52.504;13.478;2023-08-01T03:14:03;10.23;;;3.92;;
44120;SDS011;29783;52.504;13.478;2023-08-01T03:16:31;7.43;;;3.92;;
44120;SDS011;29783;52.504;13.478;2023-08-01T03:18:58;9.00;;;4.38;;
44120;SDS011;29783;52.504;13.478;2023-08-01T03:21:31;8.82;;;4.05;;
44120;SDS011;29783;52.504;13.478;2023-08-01T03:24:03;8.43;;;4.05;;
44120;SDS011;29783;52.504;13.478;2023-08-01T03:26:31;6.95;;;3.75;;
44120;SDS011;29783;52.504;13.478;2023-08-01T03:28:56;7.55;;;3.85;;
44120;SDS011;29783;52.504;13.478;2023-08-01T03:31:22;9.88;;;3.55;;
44120;SDS011;29783;52.504;13.478;2023-08-01T03:33:50;9.40;;;4.00;;
44120;SDS011;29783;52.504;13.478;2023-08-01T03:36:15;11.55;;;3.63;;
44120;SDS011;29783;52.504;13.478;2023-08-01T03:38:41;12.52;;;4.00;;
44120;SDS011;29783;52.504;13.478;2023-08-01T03:41:08;9.50;;;3.72;;
44120;SDS011;29783;52.504;13.478;2023-08-01T03:43:34;5.50;;;3.60;;
44120;SDS011;29783;52.504;13.478;2023-08-01T03:46:00;7.05;;;3.58;;
44120;SDS011;29783;52.504;13.478;2023-08-01T03:48:25;12.10;;;3.92;;
44120;SDS011;29783;52.504;13.478;2023-08-01T03:50:51;6.63;;;3.80;;
44120;SDS011;29783;52.504;13.478;2023-08-01T03:53:17;8.13;;;3.60;;
44120;SDS011;29783;52.504;13.478;2023-08-01T03:55:43;9.60;;;3.72;;
44120;SDS011;29783;52.504;13.478;2023-08-01T03:58:09;9.13;;;3.67;;
44120;SDS011;29783;52.504;13.478;2023-08-01T04:00:35;7.82;;;3.55;;
44120;SDS011;29783;52.504;13.478;2023-08-01T04:03:01;8.32;;;3.58;;
44120;SDS011;29783;52.504;13.478;2023-08-01T04:05:27;5.70;;;3.28;;
44120;SDS011;29783;52.504;13.478;2023-08-01T04:07:53;8.70;;;3.53;;
44120;SDS011;29783;52.504;13.478;2023-08-01T04:10:22;8.40;;;3.13;;
44120;SDS011;29783;52.504;13.478;2023-08-01T04:12:49;9.18;;;3.33;;
44120;SDS011;29783;52.504;13.478;2023-08-01T04:15:15;8.02;;;3.38;;
44120;SDS011;29783;52.504;13.478;2023-08-01T04:17:42;7.50;;;3.22;;
44120;SDS011;29783;52.504;13.478;2023-08-01T04:20:07;7.45;;;4.03;;
44120;SDS011;29783;52.504;13.478;2023-08-01T04:22:34;7.93;;;3.38;;
44120;SDS011;29783;52.504;13.478;2023-08-01T04:25:01;8.13;;;2.95;;
44120;SDS011;29783;52.504;13.478;2023-08-01T04:27:27;10.65;;;3.60;;
44120;SDS011;29783;52.504;13.478;2023-08-01T04:29:54;7.05;;;3.10;;
44120;SDS011;29783;52.504;13.478;2023-08-01T04:32:20;6.05;;;3.15;;
44120;SDS011;29783;52.504;13.478;2023-08-01T04:34:46;6.72;;;3.38;;
44120;SDS011;29783;52.504;13.478;2023-08-01T04:37:12;7.10;;;3.25;;
44120;SDS011;29783;52.504;13.478;2023-08-01T04:39:38;6.75;;;3.33;;
44120;SDS011;29783;52.504;13.478;2023-08-01T04:42:08;11.70;;;3.75;;
44120;SDS011;29783;52.504;13.478;2023-08-01T04:44:33;6.55;;;3.17;;
44120;SDS011;29783;52.504;13.478;2023-08-01T04:46:59;6.05;;;3.03;;
44120;SDS011;29783;52.504;13.478;2023-08-01T04:49:24;10.45;;;3.30;;
44120;SDS011;29783;52.504;13.478;2023-08-01T04:51:52;8.40;;;3.00;;
44120;SDS011;29783;52.504;13.478;2023-08-01T04:54:17;10.38;;;3.38;;
44120;SDS011;29783;52.504;13.478;2023-08-01T04:56:44;8.13;;;3.17;;
44120;SDS011;29783;52.504;13.478;2023-08-01T04:59:10;5.30;;;3.00;;
44120;SDS011;29783;52.504;13.478;2023-08-01T05:01:35;5.75;;;2.90;;
44120;SDS011;29783;52.504;13.478;2023-08-01T05:04:02;5.07;;;3.03;;
44120;SDS011;29783;52.504;13.478;2023-08-01T05:06:28;8.73;;;3.20;;
44120;SDS011;29783;52.504;13.478;2023-08-01T05:08:54;6.07;;;2.92;;
44120;SDS011;29783;52.504;13.478;2023-08-01T05:11:20;7.07;;;3.58;;
44120;SDS011;29783;52.504;13.478;2023-08-01T05:13:46;5.55;;;3.17;;
44120;SDS011;29783;52.504;13.478;2023-08-01T05:16:12;5.88;;;3.25;;
44120;SDS011;29783;52.504;13.478;2023-08-01T05:18:38;5.95;;;3.20;;
44120;SDS011;29783;52.504;13.478;2023-08-01T05:21:03;10.05;;;3.10;;
44120;SDS011;29783;52.504;13.478;2023-08-01T05:23:29;6.60;;;2.97;;
44120;SDS011;29783;52.504;13.478;2023-08-01T05:25:56;9.13;;;2.95;;
44120;SDS011;29783;52.504;13.478;2023-08-01T05:28:23;6.68;;;3.08;;
44120;SDS011;29783;52.504;13.478;2023-08-01T05:30:49;6.55;;;3.15;;
44120;SDS011;29783;52.504;13.478;2023-08-01T05:33:15;8.38;;;3.25;;
44120;SDS011;29783;52.504;13.478;2023-08-01T05:35:41;6.70;;;3.50;;
44120;SDS011;29783;52.504;13.478;2023-08-01T05:38:07;10.25;;;3.25;;
44120;SDS011;29783;52.504;13.478;2023-08-01T05:40:32;5.63;;;3.03;;
44120;SDS011;29783;52.504;13.478;2023-08-01T05:43:00;7.13;;;3.53;;
44120;SDS011;29783;52.504;13.478;2023-08-01T05:45:27;9.20;;;2.92;;
44120;SDS011;29783;52.504;13.478;2023-08-01T06:44:36;6.20;;;2.17;;
44120;SDS011;29783;52.504;13.478;2023-08-01T06:47:03;2.92;;;2.15;;
44120;SDS011;29783;52.504;13.478;2023-08-01T07:04:09;3.88;;;2.08;;
44120;SDS011;29783;52.504;13.478;2023-08-01T07:06:36;4.95;;;2.22;;
44120;SDS011;29783;52.504;13.478;2023-08-01T07:09:01;3.35;;;2.28;;
44120;SDS011;29783;52.504;13.478;2023-08-01T07:11:27;5.40;;;2.47;;
44120;SDS011;29783;52.504;13.478;2023-08-01T07:13:53;5.63;;;2.50;;
44120;SDS011;29783;52.504;13.478;2023-08-01T07:16:20;5.18;;;2.42;;
44120;SDS011;29783;52.504;13.478;2023-08-01T07:18:45;4.25;;;2.67;;
44120;SDS011;29783;52.504;13.478;2023-08-01T07:21:13;6.30;;;2.28;;
44120;SDS011;29783;52.504;13.478;2023-08-01T07:23:39;5.30;;;2.40;;
44120;SDS011;29783;52.504;13.478;2023-08-01T07:26:06;5.05;;;2.40;;
44120;SDS011;29783;52.504;13.478;2023-08-01T07:28:33;5.63;;;2.70;;
44120;SDS011;29783;52.504;13.478;2023-08-01T07:31:03;4.80;;;2.22;;
44120;SDS011;29783;52.504;13.478;2023-08-01T07:33:31;8.68;;;2.28;;
44120;SDS011;29783;52.504;13.478;2023-08-01T07:35:57;2.70;;;2.15;;
44120;SDS011;29783;52.504;13.478;2023-08-01T07:38:25;2.95;;;2.28;;
44120;SDS011;29783;52.504;13.478;2023-08-01T07:40:54;6.47;;;1.98;;
44120;SDS011;29783;52.504;13.478;2023-08-01T07:43:22;3.80;;;1.92;;
44120;SDS011;29783;52.504;13.478;2023-08-01T07:45:49;7.30;;;2.20;;
44120;SDS011;29783;52.504;13.478;2023-08-01T07:48:20;4.72;;;2.20;;
44120;SDS011;29783;52.504;13.478;2023-08-01T07:50:46;4.63;;;1.88;;
44120;SDS011;29783;52.504;13.478;2023-08-01T07:53:11;4.60;;;2.03;;
44120;SDS011;29783;52.504;13.478;2023-08-01T07:55:38;3.78;;;2.00;;
44120;SDS011;29783;52.504;13.478;2023-08-01T07:58:04;3.63;;;2.20;;
44120;SDS011;29783;52.504;13.478;2023-08-01T08:00:30;5.22;;;1.90;;
44120;SDS011;29783;52.504;13.478;2023-08-01T08:02:55;4.95;;;2.00;;
44120;SDS011;29783;52.504;13.478;2023-08-01T08:05:22;3.95;;;1.98;;
44120;SDS011;29783;52.504;13.478;2023-08-01T08:07:48;3.97;;;1.65;;
44120;SDS011;29783;52.504;13.478;2023-08-01T08:10:14;2.78;;;1.63;;
44120;SDS011;29783;52.504;13.478;2023-08-01T08:12:40;9.73;;;1.88;;
44120;SDS011;29783;52.504;13.478;2023-08-01T08:15:07;4.70;;;1.77;;
44120;SDS011;29783;52.504;13.478;2023-08-01T08:17:33;3.33;;;1.80;;
44120;SDS011;29783;52.504;13.478;2023-08-01T08:19:59;2.55;;;1.70;;
44120;SDS011;29783;52.504;13.478;2023-08-01T08:22:25;1.75;;;1.25;;
44120;SDS011;29783;52.504;13.478;2023-08-01T08:24:50;6.93;;;1.48;;
44120;SDS011;29783;52.504;13.478;2023-08-01T08:27:18;10.30;;;1.92;;
44120;SDS011;29783;52.504;13.478;2023-08-01T08:29:43;2.67;;;1.35;;
44120;SDS011;29783;52.504;13.478;2023-08-01T08:32:09;1.92;;;1.40;;
44120;SDS011;29783;52.504;13.478;2023-08-01T08:34:36;2.72;;;1.40;;
44120;SDS011;29783;52.504;13.478;2023-08-01T08:37:01;4.95;;;1.38;;
44120;SDS011;29783;52.504;13.478;2023-08-01T08:39:29;4.22;;;1.23;;
44120;SDS011;29783;52.504;13.478;2023-08-01T08:41:56;2.95;;;1.50;;
44120;SDS011;29783;52.504;13.478;2023-08-01T08:44:23;1.73;;;1.17;;
44120;SDS011;29783;52.504;13.478;2023-08-01T08:46:55;4.25;;;1.30;;
44120;SDS011;29783;52.504;13.478;2023-08-01T08:49:24;3.08;;;1.33;;
44120;SDS011;29783;52.504;13.478;2023-08-01T08:51:51;3.15;;;1.40;;
44120;SDS011;29783;52.504;13.478;2023-08-01T08:54:19;4.28;;;1.25;;
44120;SDS011;29783;52.504;13.478;2023-08-01T08:56:45;5.85;;;1.25;;
44120;SDS011;29783;52.504;13.478;2023-08-01T08:59:11;3.60;;;1.30;;
44120;SDS011;29783;52.504;13.478;2023-08-01T09:01:38;3.13;;;1.20;;
44120;SDS011;29783;52.504;13.478;2023-08-01T09:04:05;2.20;;;1.10;;
44120;SDS011;29783;52.504;13.478;2023-08-01T09:06:32;3.85;;;1.20;;
44120;SDS011;29783;52.504;13.478;2023-08-01T09:09:03;4.00;;;1.27;;
44120;SDS011;29783;52.504;13.478;2023-08-01T09:11:38;3.42;;;1.20;;
44120;SDS011;29783;52.504;13.478;2023-08-01T09:14:10;4.70;;;1.40;;
44120;SDS011;29783;52.504;13.478;2023-08-01T09:16:37;2.88;;;1.20;;
44120;SDS011;29783;52.504;13.478;2023-08-01T09:19:05;2.10;;;0.73;;
44120;SDS011;29783;52.504;13.478;2023-08-01T09:21:32;1.77;;;0.90;;
44120;SDS011;29783;52.504;13.478;2023-08-01T09:24:07;4.85;;;0.88;;
44120;SDS011;29783;52.504;13.478;2023-08-01T09:26:37;1.52;;;0.80;;
44120;SDS011;29783;52.504;13.478;2023-08-01T09:29:03;4.45;;;0.88;;
44120;SDS011;29783;52.504;13.478;2023-08-01T09:31:29;0.82;;;0.52;;
44120;SDS011;29783;52.504;13.478;2023-08-01T09:33:56;0.90;;;0.40;;
44120;SDS011;29783;52.504;13.478;2023-08-01T09:36:23;0.93;;;0.60;;
44120;SDS011;29783;52.504;13.478;2023-08-01T09:38:52;2.20;;;0.60;;
44120;SDS011;29783;52.504;13.478;2023-08-01T09:41:28;0.90;;;0.52;;
44120;SDS011;29783;52.504;13.478;2023-08-01T09:43:56;0.88;;;0.43;;
44120;SDS011;29783;52.504;13.478;2023-08-01T09:46:23;3.28;;;0.60;;
44120;SDS011;29783;52.504;13.478;2023-08-01T10:29:36;2.83;;;0.82;;
44120;SDS011;29783;52.504;13.478;2023-08-01T10:32:02;1.40;;;0.52;;
44120;SDS011;29783;52.504;13.478;2023-08-01T10:34:28;2.25;;;0.80;;
44120;SDS011;29783;52.504;13.478;2023-08-01T10:36:55;1.20;;;0.60;;
44120;SDS011;29783;52.504;13.478;2023-08-01T10:39:23;2.45;;;0.77;;
44120;SDS011;29783;52.504;13.478;2023-08-01T10:44:28;0.43;;;0.43;;
44120;SDS011;29783;52.504;13.478;2023-08-01T10:49:40;6.57;;;0.70;;
44120;SDS011;29783;52.504;13.478;2023-08-01T10:55:02;3.00;;;0.77;;
44120;SDS011;29783;52.504;13.478;2023-08-01T10:57:29;6.22;;;0.60;;
44120;SDS011;29783;52.504;13.478;2023-08-01T10:59:56;1.65;;;0.60;;
44120;SDS011;29783;52.504;13.478;2023-08-01T11:02:24;2.88;;;0.75;;
44120;SDS011;29783;52.504;13.478;2023-08-01T11:04:55;4.35;;;0.73;;
44120;SDS011;29783;52.504;13.478;2023-08-01T11:07:24;1.58;;;0.80;;
44120;SDS011;29783;52.504;13.478;2023-08-01T11:10:02;1.60;;;1.10;;
44120;SDS011;29783;52.504;13.478;2023-08-01T11:12:39;2.53;;;0.93;;
44120;SDS011;29783;52.504;13.478;2023-08-01T11:15:07;3.72;;;0.82;;
44120;SDS011;29783;52.504;13.478;2023-08-01T11:17:38;1.52;;;0.90;;
44120;SDS011;29783;52.504;13.478;2023-08-01T11:20:05;1.92;;;0.90;;
44120;SDS011;29783;52.504;13.478;2023-08-01T11:22:32;1.23;;;0.80;;
44120;SDS011;29783;52.504;13.478;2023-08-01T11:24:58;1.50;;;0.98;;
44120;SDS011;29783;52.504;13.478;2023-08-01T11:27:24;1.98;;;1.08;;
44120;SDS011;29783;52.504;13.478;2023-08-01T11:29:51;2.55;;;1.02;;
44120;SDS011;29783;52.504;13.478;2023-08-01T11:32:17;1.70;;;1.20;;
44120;SDS011;29783;52.504;13.478;2023-08-01T11:34:45;1.75;;;1.08;;
44120;SDS011;29783;52.504;13.478;2023-08-01T11:37:11;1.10;;;0.85;;
44120;SDS011;29783;52.504;13.478;2023-08-01T11:39:43;1.25;;;1.10;;
44120;SDS011;29783;52.504;13.478;2023-08-01T11:42:16;1.67;;;1.30;;
44120;SDS011;29783;52.504;13.478;2023-08-01T11:44:42;1.63;;;1.27;;
44120;SDS011;29783;52.504;13.478;2023-08-01T11:47:12;2.30;;;1.25;;
44120;SDS011;29783;52.504;13.478;2023-08-01T11:49:49;5.18;;;1.65;;
44120;SDS011;29783;52.504;13.478;2023-08-01T11:52:22;3.38;;;1.80;;
44120;SDS011;29783;52.504;13.478;2023-08-01T11:54:49;3.55;;;1.65;;
44120;SDS011;29783;52.504;13.478;2023-08-01T11:57:16;4.32;;;1.70;;
44120;SDS011;29783;52.504;13.478;2023-08-01T11:59:47;3.20;;;1.85;;
44120;SDS011;29783;52.504;13.478;2023-08-01T12:02:22;3.83;;;1.85;;
44120;SDS011;29783;52.504;13.478;2023-08-01T12:04:57;5.60;;;1.70;;
44120;SDS011;29783;52.504;13.478;2023-08-01T12:07:25;7.53;;;2.00;;
44120;SDS011;29783;52.504;13.478;2023-08-01T12:09:55;4.80;;;2.20;;
44120;SDS011;29783;52.504;13.478;2023-08-01T12:12:21;2.63;;;2.00;;
44120;SDS011;29783;52.504;13.478;2023-08-01T12:14:48;3.72;;;2.08;;
44120;SDS011;29783;52.504;13.478;2023-08-01T12:17:15;6.90;;;2.33;;
44120;SDS011;29783;52.504;13.478;2023-08-01T12:19:44;4.85;;;2.40;;
44120;SDS011;29783;52.504;13.478;2023-08-01T12:22:10;3.80;;;1.90;;
44120;SDS011;29783;52.504;13.478;2023-08-01T12:24:36;5.25;;;2.03;;
44120;SDS011;29783;52.504;13.478;2023-08-01T12:27:04;6.32;;;2.15;;
44120;SDS011;29783;52.504;13.478;2023-08-01T12:29:31;4.03;;;2.03;;
44120;SDS011;29783;52.504;13.478;2023-08-01T12:31:57;3.55;;;2.03;;
44120;SDS011;29783;52.504;13.478;2023-08-01T12:34:23;6.65;;;2.58;;
44120;SDS011;29783;52.504;13.478;2023-08-01T12:36:49;6.03;;;2.45;;
44120;SDS011;29783;52.504;13.478;2023-08-01T12:39:22;8.15;;;2.53;;
44120;SDS011;29783;52.504;13.478;2023-08-01T12:41:49;5.57;;;2.40;;
44120;SDS011;29783;52.504;13.478;2023-08-01T12:44:14;7.65;;;2.20;;
44120;SDS011;29783;52.504;13.478;2023-08-01T12:46:42;3.70;;;2.20;;
44120;SDS011;29783;52.504;13.478;2023-08-01T12:49:08;3.47;;;2.15;;
44120;SDS011;29783;52.504;13.478;2023-08-01T12:51:34;5.10;;;2.30;;
44120;SDS011;29783;52.504;13.478;2023-08-01T12:53:59;6.18;;;1.70;;
44120;SDS011;29783;52.504;13.478;2023-08-01T12:56:25;7.35;;;2.20;;
44120;SDS011;29783;52.504;13.478;2023-08-01T12:58:53;5.18;;;1.75;;
44120;SDS011;29783;52.504;13.478;2023-08-01T13:01:20;4.50;;;2.30;;
44120;SDS011;29783;52.504;13.478;2023-08-01T13:03:45;10.93;;;2.35;;
44120;SDS011;29783;52.504;13.478;2023-08-01T13:06:11;5.82;;;2.25;;
44120;SDS011;29783;52.504;13.478;2023-08-01T13:08:38;5.55;;;2.20;;
44120;SDS011;29783;52.504;13.478;2023-08-01T13:11:13;8.18;;;2.40;;
44120;SDS011;29783;52.504;13.478;2023-08-01T13:13:40;4.90;;;2.20;;
44120;SDS011;29783;52.504;13.478;2023-08-01T13:16:07;8.57;;;2.70;;
44120;SDS011;29783;52.504;13.478;2023-08-01T13:18:34;5.50;;;2.35;;
44120;SDS011;29783;52.504;13.478;2023-08-01T13:21:00;8.32;;;2.35;;
44120;SDS011;29783;52.504;13.478;2023-08-01T13:23:27;7.53;;;2.30;;
44120;SDS011;29783;52.504;13.478;2023-08-01T13:25:53;5.95;;;2.10;;
44120;SDS011;29783;52.504;13.478;2023-08-01T13:28:18;6.72;;;2.50;;
44120;SDS011;29783;52.504;13.478;2023-08-01T13:30:44;4.38;;;2.38;;
44120;SDS011;29783;52.504;13.478;2023-08-01T13:33:11;7.05;;;2.35;;
44120;SDS011;29783;52.504;13.478;2023-08-01T13:35:37;5.90;;;2.40;;
44120;SDS011;29783;52.504;13.478;2023-08-01T13:38:03;8.95;;;2.30;;
44120;SDS011;29783;52.504;13.478;2023-08-01T13:40:30;4.00;;;2.30;;
44120;SDS011;29783;52.504;13.478;2023-08-01T13:42:56;4.38;;;2.10;;
44120;SDS011;29783;52.504;13.478;2023-08-01T13:45:21;9.18;;;2.30;;
44120;SDS011;29783;52.504;13.478;2023-08-01T14:13:05;8.77;;;1.83;;
44120;SDS011;29783;52.504;13.478;2023-08-01T14:15:31;8.55;;;2.05;;
44120;SDS011;29783;52.504;13.478;2023-08-01T14:17:56;5.43;;;1.65;;
44120;SDS011;29783;52.504;13.478;2023-08-01T14:20:23;8.50;;;1.67;;
44120;SDS011;29783;52.504;13.478;2023-08-01T14:22:50;5.03;;;2.33;;
44120;SDS011;29783;52.504;13.478;2023-08-01T14:25:16;5.57;;;1.92;;
44120;SDS011;29783;52.504;13.478;2023-08-01T14:27:41;7.15;;;2.20;;
44120;SDS011;29783;52.504;13.478;2023-08-01T14:30:07;4.50;;;1.75;;
44120;SDS011;29783;52.504;13.478;2023-08-01T14:32:33;5.07;;;1.73;;
44120;SDS011;29783;52.504;13.478;2023-08-01T14:35:01;2.83;;;1.77;;
44120;SDS011;29783;52.504;13.478;2023-08-01T14:37:27;5.35;;;1.58;;
44120;SDS011;29783;52.504;13.478;2023-08-01T14:39:54;6.32;;;2.10;;
44120;SDS011;29783;52.504;13.478;2023-08-01T14:42:20;4.15;;;1.30;;
44120;SDS011;29783;52.504;13.478;2023-08-01T14:44:51;8.68;;;2.15;;
44120;SDS011;29783;52.504;13.478;2023-08-01T15:01:16;3.70;;;1.65;;
44120;SDS011;29783;52.504;13.478;2023-08-01T15:03:44;4.30;;;2.00;;
44120;SDS011;29783;52.504;13.478;2023-08-01T15:06:11;6.93;;;1.88;;
44120;SDS011;29783;52.504;13.478;2023-08-01T15:08:38;5.00;;;1.80;;
44120;SDS011;29783;52.504;13.478;2023-08-01T15:11:04;9.63;;;2.00;;
44120;SDS011;29783;52.504;13.478;2023-08-01T15:13:31;4.07;;;1.40;;
44120;SDS011;29783;52.504;13.478;2023-08-01T15:15:57;4.07;;;2.22;;
44120;SDS011;29783;52.504;13.478;2023-08-01T15:18:24;4.68;;;2.50;;
44120;SDS011;29783;52.504;13.478;2023-08-01T15:20:50;6.78;;;2.22;;
44120;SDS011;29783;52.504;13.478;2023-08-01T15:23:16;19.67;;;2.90;;
44120;SDS011;29783;52.504;13.478;2023-08-01T15:25:50;3.90;;;0.80;;
44120;SDS011;29783;52.504;13.478;2023-08-01T15:28:17;4.70;;;1.27;;
44120;SDS011;29783;52.504;13.478;2023-08-01T15:30:44;9.50;;;1.42;;
44120;SDS011;29783;52.504;13.478;2023-08-01T15:33:11;5.00;;;1.83;;
44120;SDS011;29783;52.504;13.478;2023-08-01T15:35:36;4.55;;;1.90;;
44120;SDS011;29783;52.504;13.478;2023-08-01T15:38:02;4.60;;;1.85;;
44120;SDS011;29783;52.504;13.478;2023-08-01T15:40:28;9.32;;;2.25;;
44120;SDS011;29783;52.504;13.478;2023-08-01T15:42:53;8.27;;;2.75;;
44120;SDS011;29783;52.504;13.478;2023-08-01T15:45:22;7.15;;;2.65;;
44120;SDS011;29783;52.504;13.478;2023-08-01T15:47:48;5.95;;;2.40;;
44120;SDS011;29783;52.504;13.478;2023-08-01T15:50:13;4.35;;;1.85;;
44120;SDS011;29783;52.504;13.478;2023-08-01T15:52:39;5.60;;;2.38;;
44120;SDS011;29783;52.504;13.478;2023-08-01T15:55:05;12.93;;;2.50;;
44120;SDS011;29783;52.504;13.478;2023-08-01T15:57:34;4.70;;;2.28;;
44120;SDS011;29783;52.504;13.478;2023-08-01T16:00:00;4.82;;;2.05;;
44120;SDS011;29783;52.504;13.478;2023-08-01T16:02:26;10.50;;;2.20;;
44120;SDS011;29783;52.504;13.478;2023-08-01T16:04:51;7.07;;;2.00;;
44120;SDS011;29783;52.504;13.478;2023-08-01T16:07:18;3.88;;;1.35;;
44120;SDS011;29783;52.504;13.478;2023-08-01T16:09:45;3.70;;;1.58;;
44120;SDS011;29783;52.504;13.478;2023-08-01T16:12:12;4.10;;;1.88;;
44120;SDS011;29783;52.504;13.478;2023-08-01T16:14:38;4.20;;;2.00;;
44120;SDS011;29783;52.504;13.478;2023-08-01T16:17:04;2.63;;;1.20;;
44120;SDS011;29783;52.504;13.478;2023-08-01T16:19:32;3.67;;;1.40;;
44120;SDS011;29783;52.504;13.478;2023-08-01T16:21:57;6.40;;;1.73;;
44120;SDS011;29783;52.504;13.478;2023-08-01T16:24:23;4.22;;;1.42;;
44120;SDS011;29783;52.504;13.478;2023-08-01T16:26:50;2.97;;;1.35;;
44120;SDS011;29783;52.504;13.478;2023-08-01T16:29:16;1.67;;;1.08;;
44120;SDS011;29783;52.504;13.478;2023-08-01T16:31:41;10.05;;;1.60;;
44120;SDS011;29783;52.504;13.478;2023-08-01T16:34:07;7.07;;;1.45;;
44120;SDS011;29783;52.504;13.478;2023-08-01T16:36:33;4.03;;;1.23;;
44120;SDS011;29783;52.504;13.478;2023-08-01T16:39:00;5.78;;;1.30;;
44120;SDS011;29783;52.504;13.478;2023-08-01T16:41:27;2.53;;;1.10;;
44120;SDS011;29783;52.504;13.478;2023-08-01T16:43:53;1.63;;;1.08;;
44120;SDS011;29783;52.504;13.478;2023-08-01T16:46:20;3.10;;;0.90;;
44120;SDS011;29783;52.504;13.478;2023-08-01T17:41:53;3.60;;;1.20;;
44120;SDS011;29783;52.504;13.478;2023-08-01T17:44:21;2.72;;;1.13;;
44120;SDS011;29783;52.504;13.478;2023-08-01T17:46:47;2.22;;;1.20;;
44120;SDS011;29783;52.504;13.478;2023-08-01T17:49:13;1.92;;;1.13;;
44120;SDS011;29783;52.504;13.478;2023-08-01T17:51:39;6.80;;;1.63;;
44120;SDS011;29783;52.504;13.478;2023-08-01T17:54:04;4.28;;;1.50;;
44120;SDS011;29783;52.504;13.478;2023-08-01T17:56:30;2.83;;;1.40;;
44120;SDS011;29783;52.504;13.478;2023-08-01T17:58:56;3.53;;;1.75;;
44120;SDS011;29783;52.504;13.478;2023-08-01T18:01:21;2.90;;;1.50;;
44120;SDS011;29783;52.504;13.478;2023-08-01T18:03:49;5.90;;;1.48;;
44120;SDS011;29783;52.504;13.478;2023-08-01T18:06:16;1.88;;;1.15;;
44120;SDS011;29783;52.504;13.478;2023-08-01T18:08:43;4.45;;;1.20;;
44120;SDS011;29783;52.504;13.478;2023-08-01T18:11:12;1.23;;;0.90;;
44120;SDS011;29783;52.504;13.478;2023-08-01T18:13:41;5.03;;;1.13;;